| time (UTC) | temp C | wind direction | speed KPH | gust KPH | rain 1hr cm | rain 24hr cm | rain mn cm | humidity % | barometer mb |
| 20260510190003 | 12 | 12 | 6.4 | 19.3 | 0.00 | 0.00 | 0.00 | 66 | 1013.7 |
| 20260510185003 | 12 | 14 | 11.3 | 25.7 | 0.00 | 0.00 | 0.00 | 66 | 1013.6 |
| 20260510184003 | 12 | 15 | 11.3 | 25.7 | 0.00 | 0.00 | 0.00 | 65 | 1013.6 |
| 20260510183003 | 12 | 12 | 8.0 | 19.3 | 0.00 | 0.00 | 0.00 | 64 | 1013.7 |
| 20260510182003 | 12 | 4 | 11.3 | 19.3 | 0.00 | 0.00 | 0.00 | 65 | 1013.7 |
| 20260510181003 | 13 | 13 | 12.9 | 27.4 | 0.00 | 0.00 | 0.00 | 64 | 1013.8 |
| 20260510180217 | 13 | 14 | 12.9 | 22.5 | 0.00 | 0.00 | 0.00 | 64 | 1013.9 |
| 20260510175217 | 13 | 27 | 16.1 | 29.0 | 0.00 | 0.00 | 0.00 | 63 | 1014.0 |
| 20260510174003 | 13 | 25 | 14.5 | 29.0 | 0.00 | 0.00 | 0.00 | 61 | 1014.0 |
| 20260510173003 | 13 | 22 | 14.5 | 30.6 | 0.00 | 0.00 | 0.00 | 61 | 1014.1 |
| 20260510172003 | 13 | 22 | 14.5 | 25.7 | 0.00 | 0.00 | 0.00 | 64 | 1014.3 |
| 20260510171003 | 13 | 17 | 14.5 | 27.4 | 0.00 | 0.00 | 0.00 | 64 | 1014.4 |
| 20260510170003 | 13 | 18 | 14.5 | 30.6 | 0.00 | 0.00 | 0.00 | 65 | 1014.4 |
| 20260510165003 | 12 | 20 | 16.1 | 35.4 | 0.00 | 0.00 | 0.00 | 66 | 1014.4 |
| 20260510164003 | 12 | 31 | 20.9 | 33.8 | 0.00 | 0.00 | 0.00 | 65 | 1014.5 |
| 20260510163003 | 13 | 21 | 12.9 | 27.4 | 0.00 | 0.00 | 0.00 | 68 | 1014.6 |
| 20260510162003 | 12 | 31 | 20.9 | 32.2 | 0.00 | 0.00 | 0.00 | 66 | 1014.6 |
| 20260510161217 | 13 | 34 | 19.3 | 32.2 | 0.00 | 0.00 | 0.00 | 66 | 1014.7 |
| 20260510160003 | 13 | 29 | 19.3 | 40.2 | 0.00 | 0.00 | 0.00 | 67 | 1014.8 |
| 20260510155003 | 13 | 29 | 16.1 | 29.0 | 0.00 | 0.00 | 0.00 | 66 | 1014.7 |
| 20260510154003 | 13 | 29 | 17.7 | 32.2 | 0.00 | 0.00 | 0.00 | 67 | 1014.8 |
| 20260510153216 | 13 | 24 | 17.7 | 29.0 | 0.00 | 0.00 | 0.00 | 66 | 1014.9 |
| 20260510152003 | 13 | 26 | 17.7 | 30.6 | 0.00 | 0.00 | 0.00 | 67 | 1014.9 |
| 20260510151003 | 13 | 22 | 16.1 | 30.6 | 0.00 | 0.00 | 0.00 | 68 | 1015.1 |
| 20260510150004 | 13 | 22 | 16.1 | 32.2 | 0.00 | 0.00 | 0.00 | 68 | 1015.1 |
| 20260510145003 | 14 | 17 | 14.5 | 32.2 | 0.00 | 0.00 | 0.00 | 67 | 1015.2 |
| 20260510144218 | 14 | 21 | 19.3 | 35.4 | 0.00 | 0.00 | 0.00 | 67 | 1015.3 |
| 20260510143003 | 14 | 21 | 17.7 | 30.6 | 0.00 | 0.00 | 0.00 | 67 | 1015.2 |
| 20260510142003 | 15 | 7 | 14.5 | 29.0 | 0.00 | 0.00 | 0.00 | 65 | 1015.4 |
| 20260510141003 | 15 | 14 | 20.9 | 38.6 | 0.00 | 0.00 | 0.00 | 65 | 1015.5 |
| 20260510140218 | 16 | 15 | 16.1 | 38.6 | 0.00 | 0.00 | 0.00 | 63 | 1015.4 |
| 20260510135003 | 15 | 25 | 20.9 | 37.0 | 0.00 | 0.00 | 0.00 | 61 | 1015.6 |
| 20260510134003 | 16 | 36 | 19.3 | 35.4 | 0.00 | 0.00 | 0.00 | 59 | 1015.6 |
| 20260510133217 | 16 | 25 | 16.1 | 35.4 | 0.00 | 0.00 | 0.00 | 60 | 1015.6 |
| 20260510132003 | 16 | 17 | 17.7 | 30.6 | 0.00 | 0.00 | 0.00 | 61 | 1015.6 |
| 20260510131003 | 16 | 23 | 20.9 | 33.8 | 0.00 | 0.00 | 0.00 | 60 | 1015.6 |
| 20260510130219 | 16 | 28 | 20.9 | 45.1 | 0.00 | 0.00 | 0.00 | 61 | 1015.6 |
| 20260510125003 | 15 | 29 | 19.3 | 35.4 | 0.00 | 0.00 | 0.00 | 64 | 1015.6 |
| 20260510124003 | 15 | 29 | 17.7 | 37.0 | 0.00 | 0.00 | 0.00 | 64 | 1015.7 |
| 20260510123217 | 15 | 23 | 17.7 | 30.6 | 0.00 | 0.00 | 0.00 | 66 | 1015.8 |
| 20260510122003 | 15 | 22 | 17.7 | 33.8 | 0.00 | 0.00 | 0.00 | 65 | 1015.9 |
| 20260510121003 | 16 | 19 | 16.1 | 29.0 | 0.00 | 0.00 | 0.00 | 64 | 1015.9 |
| 20260510120003 | 16 | 27 | 16.1 | 27.4 | 0.00 | 0.00 | 0.00 | 63 | 1015.9 |
| 20260510115003 | 15 | 28 | 16.1 | 30.6 | 0.00 | 0.00 | 0.00 | 67 | 1016.0 |
| 20260510114003 | 15 | 21 | 17.7 | 35.4 | 0.00 | 0.00 | 0.00 | 67 | 1016.0 |
| 20260510113003 | 15 | 28 | 19.3 | 33.8 | 0.00 | 0.00 | 0.00 | 62 | 1016.1 |
| 20260510112003 | 15 | 26 | 19.3 | 33.8 | 0.00 | 0.00 | 0.00 | 64 | 1016.3 |
| 20260510111003 | 15 | 28 | 20.9 | 35.4 | 0.00 | 0.00 | 0.00 | 62 | 1016.3 |
| 20260510110003 | 15 | 40 | 22.5 | 38.6 | 0.00 | 0.00 | 0.00 | 63 | 1016.3 |
| 20260510105003 | 15 | 35 | 20.9 | 35.4 | 0.00 | 0.00 | 0.00 | 63 | 1016.4 |
| 20260510104003 | 15 | 21 | 20.9 | 37.0 | 0.00 | 0.00 | 0.00 | 64 | 1016.3 |
| 20260510103003 | 14 | 28 | 20.9 | 40.2 | 0.00 | 0.00 | 0.00 | 66 | 1016.4 |
| 20260510102003 | 14 | 35 | 19.3 | 30.6 | 0.00 | 0.00 | 0.00 | 66 | 1016.5 |
| 20260510101003 | 15 | 25 | 19.3 | 33.8 | 0.00 | 0.00 | 0.00 | 63 | 1016.6 |
| 20260510100003 | 15 | 23 | 20.9 | 35.4 | 0.00 | 0.00 | 0.00 | 64 | 1016.6 |
| 20260510095003 | 14 | 24 | 19.3 | 33.8 | 0.00 | 0.00 | 0.00 | 64 | 1016.7 |
| 20260510094003 | 14 | 38 | 17.7 | 32.2 | 0.00 | 0.00 | 0.00 | 64 | 1016.7 |
| 20260510093218 | 14 | 45 | 20.9 | 35.4 | 0.00 | 0.00 | 0.00 | 67 | 1016.7 |
| 20260510092003 | 14 | 42 | 20.9 | 33.8 | 0.00 | 0.00 | 0.00 | 66 | 1016.8 |
| 20260510091003 | 13 | 44 | 24.1 | 41.8 | 0.00 | 0.00 | 0.00 | 67 | 1017.0 |
| 20260510090005 | 13 | 37 | 22.5 | 41.8 | 0.00 | 0.00 | 0.00 | 69 | 1017.1 |
| 20260510085218 | 13 | 25 | 20.9 | 37.0 | 0.00 | 0.00 | 0.00 | 69 | 1017.1 |
| 20260510084003 | 12 | 22 | 19.3 | 35.4 | 0.00 | 0.00 | 0.00 | 69 | 1017.1 |
| 20260510083003 | 13 | 46 | 17.7 | 30.6 | 0.00 | 0.00 | 0.00 | 71 | 1017.1 |
| 20260510082003 | 13 | 36 | 17.7 | 35.4 | 0.00 | 0.00 | 0.00 | 70 | 1017.1 |
| 20260510081218 | 12 | 24 | 20.9 | 40.2 | 0.00 | 0.00 | 0.00 | 71 | 1017.2 |
| 20260510080004 | 12 | 32 | 19.3 | 32.2 | 0.00 | 0.00 | 0.00 | 73 | 1017.1 |
| 20260510075003 | 12 | 44 | 19.3 | 32.2 | 0.00 | 0.00 | 0.00 | 73 | 1017.1 |
| 20260510074003 | 12 | 37 | 19.3 | 35.4 | 0.00 | 0.00 | 0.00 | 74 | 1017.1 |
| 20260510073003 | 11 | 35 | 24.1 | 38.6 | 0.00 | 0.00 | 0.00 | 74 | 1017.0 |
| 20260510072003 | 11 | 43 | 14.5 | 27.4 | 0.00 | 0.00 | 0.00 | 77 | 1017.0 |
| 20260510071003 | 10 | 37 | 20.9 | 40.2 | 0.00 | 0.00 | 0.00 | 77 | 1016.9 |
| 20260510070003 | 10 | 37 | 17.7 | 32.2 | 0.00 | 0.00 | 0.00 | 77 | 1016.8 |
| 20260510065004 | 10 | 32 | 20.9 | 40.2 | 0.00 | 0.00 | 0.00 | 78 | 1016.5 |
| 20260510064003 | 10 | 35 | 17.7 | 35.4 | 0.00 | 0.00 | 0.00 | 79 | 1016.6 |
| 20260510063005 | 10 | 33 | 16.1 | 33.8 | 0.00 | 0.00 | 0.00 | 80 | 1016.4 |
| 20260510062003 | 9 | 30 | 14.5 | 33.8 | 0.00 | 0.00 | 0.00 | 81 | 1016.4 |
| 20260510061003 | 9 | 32 | 16.1 | 25.7 | 0.00 | 0.00 | 0.00 | 82 | 1016.4 |
| 20260510060003 | 8 | 32 | 16.1 | 30.6 | 0.00 | 0.00 | 0.00 | 83 | 1016.4 |
| 20260510055003 | 8 | 29 | 14.5 | 29.0 | 0.00 | 0.00 | 0.00 | 83 | 1016.4 |
| 20260510054003 | 8 | 31 | 16.1 | 27.4 | 0.00 | 0.00 | 0.00 | 84 | 1016.5 |
| 20260510053003 | 8 | 33 | 16.1 | 27.4 | 0.00 | 0.00 | 0.00 | 84 | 1016.6 |
| 20260510052004 | 8 | 28 | 16.1 | 29.0 | 0.00 | 0.00 | 0.00 | 84 | 1016.5 |
| 20260510051216 | 8 | 24 | 14.5 | 30.6 | 0.00 | 0.00 | 0.00 | 84 | 1016.6 |
| 20260510050216 | 8 | 28 | 14.5 | 24.1 | 0.00 | 0.00 | 0.00 | 84 | 1016.7 |
| 20260510045003 | 8 | 28 | 16.1 | 30.6 | 0.00 | 0.00 | 0.00 | 84 | 1016.6 |
| 20260510044003 | 8 | 29 | 14.5 | 33.8 | 0.00 | 0.00 | 0.00 | 83 | 1016.6 |
| 20260510043004 | 8 | 29 | 16.1 | 32.2 | 0.00 | 0.00 | 0.00 | 82 | 1016.5 |
| 20260510042003 | 8 | 25 | 17.7 | 30.6 | 0.00 | 0.00 | 0.00 | 81 | 1016.5 |
| 20260510041003 | 8 | 24 | 14.5 | 25.7 | 0.00 | 0.00 | 0.00 | 81 | 1016.6 |
| 20260510040003 | 9 | 22 | 14.5 | 25.7 | 0.00 | 0.00 | 0.00 | 79 | 1016.6 |
| 20260510035003 | 9 | 26 | 16.1 | 32.2 | 0.00 | 0.00 | 0.00 | 78 | 1016.5 |
| 20260510034003 | 9 | 23 | 17.7 | 30.6 | 0.00 | 0.00 | 0.00 | 78 | 1016.6 |
| 20260510033218 | 10 | 29 | 16.1 | 32.2 | 0.00 | 0.00 | 0.00 | 78 | 1016.6 |
| 20260510032003 | 10 | 26 | 16.1 | 29.0 | 0.00 | 0.00 | 0.00 | 79 | 1016.7 |
| 20260510031003 | 10 | 22 | 14.5 | 25.7 | 0.00 | 0.00 | 0.00 | 80 | 1016.8 |
| 20260510030003 | 10 | 23 | 14.5 | 25.7 | 0.00 | 0.00 | 0.00 | 81 | 1016.7 |
| 20260510025004 | 10 | 18 | 12.9 | 27.4 | 0.00 | 0.00 | 0.00 | 81 | 1016.7 |
| 20260510024003 | 10 | 18 | 12.9 | 25.7 | 0.00 | 0.00 | 0.00 | 81 | 1016.8 |
| 20260510023003 | 10 | 21 | 12.9 | 24.1 | 0.00 | 0.00 | 0.00 | 81 | 1016.9 |
| 20260510022003 | 10 | 17 | 12.9 | 25.7 | 0.00 | 0.00 | 0.00 | 81 | 1016.8 |
| 20260510021003 | 10 | 23 | 14.5 | 25.7 | 0.00 | 0.00 | 0.00 | 81 | 1016.7 |
| 20260510020003 | 10 | 23 | 11.3 | 22.5 | 0.00 | 0.00 | 0.00 | 81 | 1016.8 |
| 20260510015003 | 10 | 20 | 12.9 | 25.7 | 0.00 | 0.00 | 0.00 | 81 | 1016.6 |
| 20260510014003 | 11 | 23 | 11.3 | 24.1 | 0.00 | 0.00 | 0.00 | 81 | 1016.7 |
| 20260510013003 | 11 | 33 | 11.3 | 22.5 | 0.00 | 0.00 | 0.00 | 82 | 1016.7 |
| 20260510012003 | 11 | 37 | 11.3 | 22.5 | 0.00 | 0.00 | 0.00 | 82 | 1016.6 |
| 20260510011003 | 11 | 27 | 12.9 | 25.7 | 0.00 | 0.00 | 0.00 | 82 | 1016.7 |
| 20260510010003 | 11 | 30 | 14.5 | 29.0 | 0.00 | 0.00 | 0.00 | 82 | 1016.6 |
| 20260510005003 | 11 | 26 | 16.1 | 25.7 | 0.00 | 0.00 | 0.00 | 82 | 1016.6 |
| 20260510004003 | 12 | 28 | 14.5 | 29.0 | 0.00 | 0.00 | 0.00 | 82 | 1016.5 |
| 20260510003003 | 12 | 29 | 16.1 | 29.0 | 0.00 | 0.00 | 0.00 | 82 | 1016.6 |
| 20260510002003 | 12 | 29 | 17.7 | 29.0 | 0.00 | 0.00 | 0.00 | 82 | 1016.6 |
| 20260510001003 | 12 | 27 | 16.1 | 30.6 | 0.00 | 0.00 | 0.00 | 82 | 1016.6 |
| 20260510000003 | 12 | 26 | 16.1 | 27.4 | 0.00 | 0.00 | 0.00 | 82 | 1016.6 |
| 20260509235003 | 12 | 27 | 14.5 | 24.1 | 0.00 | 0.00 | 0.00 | 82 | 1016.6 |
| 20260509234003 | 12 | 27 | 16.1 | 27.4 | 0.00 | 0.00 | 0.00 | 81 | 1016.6 |
| 20260509233003 | 13 | 28 | 12.9 | 24.1 | 0.00 | 0.00 | 0.00 | 81 | 1016.5 |
| 20260509232003 | 13 | 27 | 11.3 | 22.5 | 0.00 | 0.00 | 0.00 | 81 | 1016.6 |
| 20260509231003 | 13 | 25 | 11.3 | 22.5 | 0.00 | 0.00 | 0.00 | 81 | 1016.5 |
| 20260509230218 | 13 | 29 | 12.9 | 22.5 | 0.00 | 0.00 | 0.00 | 81 | 1016.4 |
| 20260509225003 | 13 | 36 | 11.3 | 22.5 | 0.00 | 0.00 | 0.00 | 81 | 1016.5 |
| 20260509224218 | 13 | 32 | 12.9 | 24.1 | 0.00 | 0.00 | 0.00 | 81 | 1016.4 |
| 20260509223003 | 13 | 28 | 12.9 | 27.4 | 0.00 | 0.00 | 0.00 | 81 | 1016.3 |
| 20260509222003 | 13 | 34 | 11.3 | 24.1 | 0.00 | 0.00 | 0.00 | 80 | 1016.5 |
| 20260509221003 | 13 | 34 | 11.3 | 20.9 | 0.00 | 0.00 | 0.00 | 80 | 1016.6 |
| 20260509220003 | 13 | 34 | 11.3 | 22.5 | 0.00 | 0.00 | 0.00 | 80 | 1016.5 |
| 20260509215003 | 13 | 28 | 12.9 | 22.5 | 0.00 | 0.00 | 0.00 | 79 | 1016.5 |
| 20260509214003 | 13 | 22 | 12.9 | 32.2 | 0.00 | 0.00 | 0.00 | 78 | 1016.5 |
| 20260509213217 | 13 | 22 | 11.3 | 24.1 | 0.00 | 0.00 | 0.00 | 78 | 1016.5 |
| 20260509212003 | 14 | 19 | 14.5 | 29.0 | 0.00 | 0.00 | 0.00 | 77 | 1016.5 |
| 20260509211003 | 14 | 20 | 14.5 | 27.4 | 0.00 | 0.00 | 0.00 | 76 | 1016.4 |
| 20260509210217 | 14 | 18 | 14.5 | 25.7 | 0.00 | 0.00 | 0.00 | 75 | 1016.2 |
| 20260509205003 | 14 | 22 | 16.1 | 32.2 | 0.00 | 0.00 | 0.00 | 72 | 1016.1 |
| 20260509204003 | 15 | 21 | 12.9 | 24.1 | 0.00 | 0.00 | 0.00 | 68 | 1015.9 |
| 20260509203003 | 15 | 18 | 8.0 | 22.5 | 0.00 | 0.00 | 0.00 | 67 | 1015.8 |
| 20260509202003 | 15 | 10 | 4.8 | 14.5 | 0.00 | 0.00 | 0.00 | 65 | 1015.8 |
| 20260509201003 | 15 | 9 | 6.4 | 14.5 | 0.00 | 0.00 | 0.00 | 65 | 1015.7 |
| 20260509200003 | 15 | 3 | 6.4 | 14.5 | 0.00 | 0.00 | 0.00 | 64 | 1015.7 |
| 20260509195003 | 15 | 4 | 6.4 | 20.9 | 0.00 | 0.00 | 0.00 | 63 | 1015.7 |
| 20260509194217 | 16 | 6 | 6.4 | 19.3 | 0.00 | 0.00 | 0.00 | 63 | 1015.6 |
| 20260509193217 | 16 | 2 | 11.3 | 19.3 | 0.00 | 0.00 | 0.00 | 62 | 1015.5 |
| 20260509192003 | 16 | 357 | 8.0 | 20.9 | 0.00 | 0.00 | 0.00 | 61 | 1015.5 |
| 20260509191003 | 16 | 359 | 8.0 | 20.9 | 0.00 | 0.00 | 0.00 | 60 | 1015.6 |